createdAt,value
2022-12-15T00:00:25.140Z,26.08
2022-12-15T00:03:10.527Z,25.50
2022-12-15T00:08:41.027Z,25.30
2022-12-15T00:11:26.224Z,28.45
2022-12-15T00:14:11.497Z,24.33
2022-12-15T00:16:56.713Z,22.92
2022-12-15T00:19:41.756Z,23.27
2022-12-15T00:22:27.132Z,24.23
2022-12-15T00:27:57.284Z,21.25
2022-12-15T00:30:42.875Z,22.52
2022-12-15T00:33:31.055Z,22.63
2022-12-15T00:36:17.583Z,23.83
2022-12-15T00:38:44.546Z,21.40
2022-12-15T00:41:17.280Z,23.55
2022-12-15T00:43:44.520Z,25.27
2022-12-15T00:46:29.839Z,23.30
2022-12-15T00:48:56.532Z,23.00
2022-12-15T00:51:41.820Z,20.88
2022-12-15T00:54:27.022Z,23.17
2022-12-15T00:57:12.217Z,22.10
2022-12-15T00:59:57.503Z,20.95
2022-12-15T01:02:42.739Z,19.88
2022-12-15T01:05:28.162Z,20.35
2022-12-15T01:08:13.436Z,22.23
2022-12-15T01:10:58.463Z,18.65
2022-12-15T01:13:43.705Z,21.05
2022-12-15T01:16:35.129Z,21.00
2022-12-15T01:19:20.652Z,20.67
2022-12-15T01:24:13.804Z,18.60
2022-12-15T01:26:40.439Z,20.60
2022-12-15T01:29:07.048Z,21.27
2022-12-15T01:31:33.786Z,21.42
2022-12-15T01:34:00.523Z,19.75
2022-12-15T01:36:27.115Z,19.23
2022-12-15T01:38:54.572Z,20.50
2022-12-15T01:41:21.713Z,18.58
2022-12-15T01:43:49.719Z,20.70
2022-12-15T01:46:19.760Z,19.52
2022-12-15T01:48:52.559Z,20.05
2022-12-15T01:51:40.220Z,20.55
2022-12-15T01:54:32.114Z,19.23
2022-12-15T01:57:04.374Z,20.95
2022-12-15T01:59:34.499Z,19.15
2022-12-15T02:02:01.927Z,19.40
2022-12-15T02:04:28.697Z,22.33
2022-12-15T02:06:55.320Z,20.17
2022-12-15T02:09:22.933Z,21.33
2022-12-15T02:11:59.810Z,20.73
2022-12-15T02:14:35.446Z,20.48
2022-12-15T02:17:11.994Z,17.55
2022-12-15T02:19:47.772Z,19.15
2022-12-15T02:22:19.112Z,20.05
2022-12-15T02:25:08.654Z,20.05
2022-12-15T02:27:44.591Z,19.02
2022-12-15T02:30:14.266Z,19.20
2022-12-15T02:33:09.080Z,19.35
2022-12-15T02:36:10.062Z,19.73
2022-12-15T02:38:39.061Z,20.10
2022-12-15T02:41:26.797Z,19.27
2022-12-15T02:43:53.497Z,18.85
2022-12-15T02:46:23.329Z,17.85
2022-12-15T02:48:49.919Z,18.15
2022-12-15T02:51:37.922Z,19.02
2022-12-15T02:54:15.186Z,19.27
2022-12-15T02:56:47.929Z,18.85
2022-12-15T02:59:39.286Z,18.42
2022-12-15T03:02:07.002Z,18.17
2022-12-15T03:04:34.023Z,19.15
2022-12-15T03:07:03.956Z,19.88
2022-12-15T03:09:31.524Z,20.77
2022-12-15T03:11:58.663Z,18.63
2022-12-15T03:14:25.576Z,18.58
2022-12-15T03:16:53.129Z,18.40
2022-12-15T03:19:20.378Z,18.17
2022-12-15T03:21:47.002Z,17.70
2022-12-15T03:24:13.610Z,18.77
2022-12-15T03:26:40.195Z,18.92
2022-12-15T03:29:06.834Z,17.80
2022-12-15T03:31:33.560Z,18.95
2022-12-15T03:34:00.204Z,21.15
2022-12-15T03:36:26.898Z,18.70
2022-12-15T03:38:53.541Z,18.42
2022-12-15T03:41:20.228Z,18.75
2022-12-15T03:43:49.939Z,18.17
2022-12-15T03:46:17.098Z,19.52
2022-12-15T03:48:43.835Z,17.98
2022-12-15T03:51:10.624Z,17.98
2022-12-15T03:53:37.478Z,18.17
2022-12-15T03:56:04.301Z,17.55
2022-12-15T03:58:31.059Z,17.08
2022-12-15T04:00:57.752Z,18.92
2022-12-15T04:03:24.537Z,18.60
2022-12-15T04:05:51.379Z,17.05
2022-12-15T04:08:18.065Z,18.23
2022-12-15T04:10:44.654Z,19.13
2022-12-15T04:13:11.826Z,20.38
2022-12-15T04:15:39.534Z,17.85
2022-12-15T04:18:09.162Z,18.27
2022-12-15T04:20:36.110Z,21.17
2022-12-15T04:23:02.766Z,18.25
2022-12-15T04:25:48.042Z,18.27
2022-12-15T04:28:33.301Z,18.88
2022-12-15T04:31:26.525Z,21.33
2022-12-15T04:34:14.126Z,18.70
2022-12-15T04:37:01.114Z,19.48
2022-12-15T04:39:46.398Z,20.40
2022-12-15T04:42:31.697Z,18.23
2022-12-15T04:48:06.045Z,18.58
2022-12-15T04:50:51.084Z,21.20
2022-12-15T04:53:37.706Z,18.95
2022-12-15T04:56:23.590Z,18.73
2022-12-15T04:59:08.909Z,19.80
2022-12-15T05:01:54.270Z,19.05
2022-12-15T05:04:39.670Z,18.45
2022-12-15T05:10:14.975Z,17.38
2022-12-15T05:13:01.621Z,19.35
2022-12-15T05:15:47.452Z,19.45
2022-12-15T05:18:32.828Z,18.13
2022-12-15T05:21:18.595Z,17.63
2022-12-15T05:24:03.450Z,18.58
2022-12-15T05:26:52.573Z,17.48
2022-12-15T05:29:38.708Z,17.65
2022-12-15T05:32:05.533Z,18.80
2022-12-15T05:34:34.312Z,16.58
2022-12-15T05:37:03.032Z,16.55
2022-12-15T05:39:30.118Z,17.15
2022-12-15T05:41:57.158Z,17.65
2022-12-15T05:44:24.795Z,16.33
2022-12-15T05:46:51.659Z,18.33
2022-12-15T05:49:19.169Z,18.52
2022-12-15T05:51:47.688Z,17.98
2022-12-15T05:54:16.558Z,20.88
2022-12-15T05:56:43.230Z,19.52
2022-12-15T05:59:09.969Z,22.73
2022-12-15T06:01:36.955Z,19.05
2022-12-15T06:04:03.800Z,25.30
2022-12-15T06:06:30.382Z,35.92
2022-12-15T06:08:57.183Z,33.33
2022-12-15T06:11:23.960Z,32.25
2022-12-15T06:13:50.629Z,41.10
2022-12-15T06:16:19.811Z,38.17
2022-12-15T06:18:50.578Z,33.67
2022-12-15T06:21:19.291Z,32.78
2022-12-15T06:23:47.135Z,32.13
2022-12-15T06:26:21.600Z,31.85
2022-12-15T06:28:49.563Z,30.67
2022-12-15T06:31:17.877Z,31.38
2022-12-15T06:33:44.556Z,28.05
2022-12-15T06:36:14.213Z,31.38
2022-12-15T06:38:43.637Z,26.55
2022-12-15T06:41:12.331Z,26.92
2022-12-15T06:43:39.298Z,25.83
2022-12-15T06:46:05.966Z,23.40
2022-12-15T06:48:32.566Z,22.95
2022-12-15T06:51:06.094Z,27.15
2022-12-15T06:53:33.233Z,23.52
2022-12-15T06:56:01.660Z,22.33
2022-12-15T06:58:28.505Z,25.13
2022-12-15T07:00:55.880Z,29.50
2022-12-15T07:03:22.713Z,28.25
2022-12-15T07:05:49.477Z,26.70
2022-12-15T07:08:16.666Z,26.73
2022-12-15T07:10:44.175Z,27.17
2022-12-15T07:13:14.419Z,26.60
2022-12-15T07:15:41.731Z,25.05
2022-12-15T07:18:10.437Z,25.10
2022-12-15T07:20:37.085Z,24.55
2022-12-15T07:23:08.020Z,24.30
2022-12-15T07:25:36.572Z,24.42
2022-12-15T07:28:03.572Z,23.92
2022-12-15T07:30:35.130Z,23.95
2022-12-15T07:33:05.803Z,25.42
2022-12-15T07:35:32.665Z,23.50
2022-12-15T07:38:00.288Z,23.77
2022-12-15T07:40:27.211Z,21.50
2022-12-15T07:42:53.882Z,23.83
2022-12-15T07:45:20.750Z,20.52
2022-12-15T07:47:50.168Z,22.60
2022-12-15T07:50:18.708Z,23.20
2022-12-15T07:52:46.146Z,20.42
2022-12-15T07:55:13.018Z,21.65
2022-12-15T07:57:39.676Z,22.98
2022-12-15T08:00:07.033Z,20.58
2022-12-15T08:02:40.726Z,21.20
2022-12-15T08:05:08.507Z,21.55
2022-12-15T08:07:35.278Z,21.98
2022-12-15T08:10:02.155Z,21.63
2022-12-15T08:12:29.193Z,21.15
2022-12-15T08:14:55.856Z,21.05
2022-12-15T08:17:23.060Z,20.52
2022-12-15T08:19:49.700Z,23.00
2022-12-15T08:22:16.280Z,20.65
2022-12-15T08:24:42.951Z,22.90
2022-12-15T08:27:09.685Z,20.35
2022-12-15T08:29:52.554Z,21.70
2022-12-15T08:32:19.600Z,21.20
2022-12-15T08:34:47.773Z,22.23
2022-12-15T08:37:14.403Z,22.60
2022-12-15T08:39:41.463Z,21.60
2022-12-15T08:42:08.236Z,29.80
2022-12-15T08:44:34.953Z,35.70
2022-12-15T08:47:01.604Z,26.88
2022-12-15T08:49:28.292Z,31.20
2022-12-15T08:51:54.870Z,30.33
2022-12-15T08:54:21.841Z,30.13
2022-12-15T08:56:48.778Z,30.10
2022-12-15T08:59:15.850Z,28.85
2022-12-15T09:01:43.413Z,26.38
2022-12-15T09:04:10.286Z,27.90
2022-12-15T09:06:36.964Z,25.17
2022-12-15T09:09:09.000Z,26.17
2022-12-15T09:11:35.845Z,25.88
2022-12-15T09:14:03.449Z,25.00
2022-12-15T09:16:30.186Z,26.10
2022-12-15T09:18:58.720Z,24.40
2022-12-15T09:21:27.324Z,25.73
2022-12-15T09:23:57.706Z,23.70
2022-12-15T09:26:24.353Z,23.88
2022-12-15T09:28:51.268Z,24.35
2022-12-15T09:31:23.151Z,23.10
2022-12-15T09:33:51.706Z,23.52
2022-12-15T09:36:19.064Z,23.58
2022-12-15T09:38:45.742Z,22.67
2022-12-15T09:41:18.628Z,23.90
2022-12-15T09:43:53.573Z,22.05
2022-12-15T09:46:38.966Z,21.83
2022-12-15T09:49:13.691Z,22.77
2022-12-15T09:51:45.498Z,24.35
2022-12-15T09:54:31.173Z,28.63
2022-12-15T10:00:34.631Z,21.90
2022-12-15T10:03:17.145Z,24.15
2022-12-15T10:09:30.935Z,24.05
2022-12-15T10:12:00.719Z,24.73
2022-12-15T10:14:43.684Z,34.15
2022-12-15T10:17:30.710Z,76.55
2022-12-15T10:20:24.772Z,52.67
2022-12-15T10:22:51.558Z,53.90
2022-12-15T10:25:29.269Z,50.22
2022-12-15T10:28:30.071Z,45.25
2022-12-15T10:31:35.897Z,41.75
2022-12-15T10:34:24.340Z,41.95
2022-12-15T10:36:52.582Z,37.92
2022-12-15T10:39:21.262Z,39.42
2022-12-15T10:46:10.980Z,49.00
2022-12-15T10:48:40.044Z,56.92
2022-12-15T10:56:50.129Z,50.78
2022-12-15T10:59:59.069Z,44.28
2022-12-15T11:03:12.094Z,42.58
2022-12-15T11:14:33.372Z,36.10
2022-12-15T11:17:49.117Z,38.45
2022-12-15T11:21:22.241Z,33.88
2022-12-15T11:24:40.185Z,32.80
2022-12-15T11:27:45.050Z,35.25
2022-12-15T11:30:41.662Z,34.70
2022-12-15T11:33:11.296Z,33.10
2022-12-15T11:35:59.715Z,32.70
2022-12-15T11:38:32.909Z,30.17
2022-12-15T11:41:08.589Z,30.35
2022-12-15T11:44:06.268Z,28.83
2022-12-15T11:46:40.139Z,23.63
2022-12-15T11:49:37.596Z,26.00
2022-12-15T11:52:31.941Z,62.75
2022-12-15T11:55:23.036Z,49.03
2022-12-15T12:00:42.588Z,57.35
2022-12-15T12:03:12.183Z,57.28
2022-12-15T12:05:57.195Z,57.20
2022-12-15T12:08:23.918Z,51.70
2022-12-15T12:11:14.807Z,48.47
2022-12-15T12:13:54.323Z,44.67
2022-12-15T12:16:42.567Z,43.20
2022-12-15T12:19:13.715Z,42.65
2022-12-15T12:25:25.898Z,39.78
2022-12-15T12:27:55.450Z,43.30
2022-12-15T12:30:25.374Z,43.15
2022-12-15T12:33:00.106Z,42.40
2022-12-15T12:35:49.566Z,41.17
2022-12-15T12:38:20.233Z,38.83
2022-12-15T12:41:10.979Z,37.83
2022-12-15T12:43:43.745Z,39.13
2022-12-15T12:46:16.651Z,36.47
2022-12-15T12:49:03.545Z,36.80
2022-12-15T12:51:32.832Z,32.85
2022-12-15T12:53:59.971Z,37.25
2022-12-15T12:56:44.177Z,32.40
2022-12-15T13:01:59.040Z,31.92
2022-12-15T13:04:28.767Z,32.05
2022-12-15T13:06:58.537Z,33.60
2022-12-15T13:09:38.438Z,30.98
2022-12-15T13:14:54.755Z,28.33
2022-12-15T13:17:38.387Z,30.90
2022-12-15T13:20:17.830Z,31.15
2022-12-15T13:22:44.673Z,30.27
2022-12-15T13:25:33.792Z,31.27
2022-12-15T13:28:02.882Z,28.85
2022-12-15T13:30:29.641Z,27.95
2022-12-15T13:33:16.787Z,30.50
2022-12-15T13:35:43.591Z,32.60
2022-12-15T13:38:52.608Z,30.63
2022-12-15T13:41:23.978Z,105.30
2022-12-15T13:43:51.514Z,81.80
2022-12-15T13:46:23.922Z,90.57
2022-12-15T13:49:07.915Z,74.55
2022-12-15T13:51:35.756Z,75.45
2022-12-15T13:54:04.773Z,68.65
2022-12-15T13:57:03.892Z,54.38
2022-12-15T13:59:33.630Z,52.25
2022-12-15T14:02:00.247Z,51.33
2022-12-15T14:04:27.361Z,45.53
2022-12-15T14:06:56.302Z,46.00
2022-12-15T14:09:32.238Z,40.55
2022-12-15T14:12:01.479Z,40.20
2022-12-15T14:14:29.981Z,42.45
2022-12-15T14:17:01.663Z,43.17
2022-12-15T14:19:38.680Z,39.45
2022-12-15T14:22:23.323Z,40.00
2022-12-15T14:25:03.615Z,37.17
2022-12-15T14:27:32.722Z,38.88
2022-12-15T14:30:33.113Z,37.25
2022-12-15T14:33:07.438Z,35.78
2022-12-15T14:35:49.476Z,36.25
2022-12-15T14:38:27.930Z,36.65
2022-12-15T14:40:57.126Z,37.88
2022-12-15T14:43:30.677Z,35.38
2022-12-15T14:46:07.562Z,37.38
2022-12-15T14:48:41.816Z,34.17
2022-12-15T14:51:11.067Z,32.97
2022-12-15T14:53:39.206Z,35.88
2022-12-15T14:56:33.174Z,34.45
2022-12-15T14:59:05.800Z,32.90
2022-12-15T15:01:42.404Z,32.70
2022-12-15T15:03:12.193Z,31.48
2022-12-15T15:04:34.193Z,33.40
2022-12-15T15:07:03.278Z,32.85
2022-12-15T15:09:41.303Z,32.60
2022-12-15T15:12:13.697Z,33.35
2022-12-15T15:14:44.074Z,34.20
2022-12-15T15:17:13.692Z,31.55
2022-12-15T15:19:47.250Z,31.58
2022-12-15T15:22:28.309Z,34.45
2022-12-15T15:24:55.063Z,31.42
2022-12-15T15:27:32.777Z,29.83
2022-12-15T15:30:16.790Z,33.22
2022-12-15T15:33:13.601Z,31.30
2022-12-15T15:35:41.886Z,31.15
2022-12-15T15:38:27.853Z,32.15
2022-12-15T15:40:56.981Z,29.20
2022-12-15T15:43:25.343Z,30.13
2022-12-15T15:46:04.172Z,32.40
2022-12-15T15:48:32.718Z,31.02
2022-12-15T15:50:59.952Z,29.08
2022-12-15T15:53:27.311Z,29.42
2022-12-15T15:55:55.185Z,29.08
2022-12-15T15:58:21.972Z,29.55
2022-12-15T16:00:48.627Z,31.63
2022-12-15T16:03:16.180Z,29.70
2022-12-15T16:05:42.942Z,29.33
2022-12-15T16:08:16.485Z,30.70
2022-12-15T16:10:45.414Z,29.75
2022-12-15T16:13:12.211Z,30.02
2022-12-15T16:15:38.910Z,45.75
2022-12-15T16:18:05.620Z,44.35
2022-12-15T16:20:33.223Z,45.38
2022-12-15T16:23:02.733Z,42.03
2022-12-15T16:25:41.455Z,41.97
2022-12-15T16:28:16.368Z,40.80
2022-12-15T16:30:43.899Z,37.75
2022-12-15T16:33:11.510Z,35.30
2022-12-15T16:35:39.441Z,36.38
2022-12-15T16:38:06.993Z,33.50
2022-12-15T16:40:37.815Z,35.22
2022-12-15T16:43:15.516Z,30.63
2022-12-15T16:45:46.762Z,33.33
2022-12-15T16:48:13.902Z,31.70
2022-12-15T16:50:43.430Z,30.88
2022-12-15T16:53:17.350Z,30.80
2022-12-15T16:55:45.003Z,28.88
2022-12-15T16:58:15.427Z,30.75
2022-12-15T17:00:42.091Z,30.08
2022-12-15T17:03:13.082Z,28.23
2022-12-15T17:05:39.999Z,27.77
2022-12-15T17:08:06.952Z,28.70
2022-12-15T17:10:33.789Z,28.13
2022-12-15T17:13:07.207Z,27.85
2022-12-15T17:15:33.889Z,27.85
2022-12-15T17:18:00.585Z,25.33
2022-12-15T17:20:30.345Z,25.75
2022-12-15T17:23:03.569Z,28.95
2022-12-15T17:26:18.202Z,33.75
2022-12-15T17:28:29.512Z,29.52
2022-12-15T17:30:56.194Z,31.23
2022-12-15T17:33:30.950Z,30.13
2022-12-15T17:36:03.080Z,29.27
2022-12-15T17:38:30.003Z,26.63
2022-12-15T17:40:57.019Z,27.63
2022-12-15T17:43:29.370Z,27.05
2022-12-15T17:46:00.403Z,25.55
2022-12-15T17:48:26.999Z,26.50
2022-12-15T17:50:53.814Z,26.67
2022-12-15T17:53:22.266Z,24.05
2022-12-15T17:55:49.798Z,26.27
2022-12-15T17:58:20.610Z,24.98
2022-12-15T18:00:53.496Z,26.33
2022-12-15T18:03:23.481Z,25.45
2022-12-15T18:05:52.329Z,23.38
2022-12-15T18:08:24.427Z,23.77
2022-12-15T18:10:54.128Z,25.27
2022-12-15T18:13:26.854Z,27.27
2022-12-15T18:15:55.640Z,25.00
2022-12-15T18:18:23.478Z,25.42
2022-12-15T18:20:51.683Z,24.40
2022-12-15T18:23:22.194Z,25.10
2022-12-15T18:25:49.279Z,25.33
2022-12-15T18:28:21.002Z,27.50
2022-12-15T18:30:49.343Z,41.15
2022-12-15T18:33:16.046Z,61.35
2022-12-15T18:35:44.850Z,51.05
2022-12-15T18:38:24.830Z,43.20
2022-12-15T18:40:57.508Z,26.33
2022-12-15T18:43:34.435Z,25.00
2022-12-15T18:46:01.444Z,29.80
2022-12-15T18:48:30.155Z,29.60
2022-12-15T18:50:58.857Z,31.73
2022-12-15T18:53:30.293Z,33.50
2022-12-15T18:55:59.851Z,30.42
2022-12-15T18:58:30.863Z,32.67
2022-12-15T19:00:58.943Z,33.78
2022-12-15T19:03:26.453Z,32.08
2022-12-15T19:06:04.138Z,36.15
2022-12-15T19:08:36.096Z,33.35
2022-12-15T19:11:06.130Z,35.67
2022-12-15T19:13:36.301Z,37.17
2022-12-15T19:16:04.900Z,35.33
2022-12-15T19:18:50.145Z,38.67
2022-12-15T19:21:45.842Z,34.90
2022-12-15T19:26:40.601Z,36.30
2022-12-15T19:29:33.688Z,36.50
2022-12-15T19:32:00.545Z,38.45
2022-12-15T19:34:27.246Z,38.10
2022-12-15T19:36:53.893Z,38.38
2022-12-15T19:39:23.581Z,36.10
2022-12-15T19:41:50.784Z,40.00
2022-12-15T19:44:17.526Z,36.72
2022-12-15T19:46:44.323Z,36.70
2022-12-15T19:49:11.029Z,38.63
2022-12-15T19:51:37.759Z,38.08
2022-12-15T19:54:04.894Z,38.03
2022-12-15T19:56:31.909Z,36.70
2022-12-15T19:58:58.503Z,39.55
2022-12-15T20:01:25.232Z,39.33
2022-12-15T20:03:53.182Z,38.15
2022-12-15T20:06:23.576Z,39.67
2022-12-15T20:08:52.870Z,36.05
2022-12-15T20:11:30.098Z,36.85
2022-12-15T20:13:57.493Z,38.45
2022-12-15T20:16:24.805Z,37.97
2022-12-15T20:18:54.656Z,43.25
2022-12-15T20:21:23.063Z,42.75
2022-12-15T20:23:54.348Z,44.30
2022-12-15T20:26:21.664Z,42.20
2022-12-15T20:28:48.400Z,41.20
2022-12-15T20:31:17.430Z,39.72
2022-12-15T20:33:44.901Z,39.20
2022-12-15T20:36:15.174Z,39.65
2022-12-15T20:38:42.523Z,37.17
2022-12-15T20:41:16.131Z,37.90
2022-12-15T20:43:42.959Z,34.42
2022-12-15T20:46:24.319Z,35.80
2022-12-15T20:48:52.519Z,34.92
2022-12-15T20:51:28.090Z,34.85
2022-12-15T20:53:56.724Z,34.05
2022-12-15T20:56:23.938Z,32.53
2022-12-15T20:58:51.972Z,30.52
2022-12-15T21:01:18.900Z,33.70
2022-12-15T21:03:46.362Z,32.55
2022-12-15T21:06:13.103Z,32.65
2022-12-15T21:08:39.846Z,33.00
2022-12-15T21:11:24.475Z,35.20
2022-12-15T21:13:53.376Z,33.30
2022-12-15T21:16:28.600Z,34.63
2022-12-15T21:21:45.777Z,33.97
2022-12-15T21:24:20.333Z,35.40
2022-12-15T21:26:47.078Z,38.35
2022-12-15T21:29:17.667Z,36.47
2022-12-15T21:31:45.008Z,35.78
2022-12-15T21:34:12.758Z,36.33
2022-12-15T21:36:42.261Z,34.67
2022-12-15T21:39:11.686Z,39.17
2022-12-15T21:41:41.340Z,35.55
2022-12-15T21:44:14.735Z,38.72
2022-12-15T21:46:42.069Z,32.40
2022-12-15T21:49:17.588Z,35.00
2022-12-15T21:51:51.924Z,41.15
2022-12-15T21:54:24.763Z,33.53
2022-12-15T21:56:54.315Z,32.95
2022-12-15T21:59:24.267Z,33.10
2022-12-15T22:01:51.409Z,32.17
2022-12-15T22:04:24.723Z,33.80
2022-12-15T22:06:51.807Z,34.00
2022-12-15T22:09:19.072Z,33.28
2022-12-15T22:11:47.527Z,34.50
2022-12-15T22:14:16.579Z,34.30
2022-12-15T22:16:43.333Z,34.88
2022-12-15T22:19:11.956Z,33.85
2022-12-15T22:21:38.660Z,31.23
2022-12-15T22:24:05.754Z,33.15
2022-12-15T22:26:32.346Z,29.73
2022-12-15T22:29:03.203Z,30.75
2022-12-15T22:31:30.064Z,31.75
2022-12-15T22:33:56.673Z,30.13
2022-12-15T22:36:23.392Z,30.02
2022-12-15T22:38:50.037Z,31.73
2022-12-15T22:41:19.732Z,28.00
2022-12-15T22:43:52.061Z,26.98
2022-12-15T22:46:19.434Z,32.55
2022-12-15T22:48:50.216Z,26.70
2022-12-15T22:51:17.781Z,28.77
2022-12-15T22:53:45.005Z,27.33
2022-12-15T22:56:24.238Z,27.42
2022-12-15T22:58:55.038Z,28.17
2022-12-15T23:01:22.016Z,26.95
2022-12-15T23:03:48.648Z,29.10
2022-12-15T23:06:15.302Z,26.55
2022-12-15T23:08:41.965Z,28.73
2022-12-15T23:11:27.366Z,27.65
2022-12-15T23:16:21.641Z,27.15
2022-12-15T23:18:50.196Z,28.67
2022-12-15T23:21:19.368Z,25.20
2022-12-15T23:23:46.001Z,26.95
2022-12-15T23:26:13.772Z,26.63
2022-12-15T23:28:40.667Z,25.33
2022-12-15T23:31:08.401Z,25.13
2022-12-15T23:33:35.694Z,22.60
2022-12-15T23:36:02.577Z,23.35
2022-12-15T23:38:29.627Z,23.77
2022-12-15T23:40:57.697Z,22.13
2022-12-15T23:43:25.663Z,22.73
2022-12-15T23:46:05.933Z,22.85
2022-12-15T23:48:36.086Z,23.60
2022-12-15T23:51:11.097Z,23.02
2022-12-15T23:56:16.595Z,21.88
2022-12-15T23:58:45.035Z,22.23
